sensor_id;sensor_type;location;lat;lon;timestamp;pressure;altitude;pressure_sealevel;temperature;humidity
69187;BME280;56301;56.864;60.554;2023-03-03T00:00:45;96430.09;;;23.80;34.26
69187;BME280;56301;56.864;60.554;2023-03-03T00:03:09;96434.44;;;23.81;34.06
69187;BME280;56301;56.864;60.554;2023-03-03T00:05:32;96437.38;;;23.80;34.91
69187;BME280;56301;56.864;60.554;2023-03-03T00:07:55;96441.16;;;23.78;34.41
69187;BME280;56301;56.864;60.554;2023-03-03T00:10:17;96452.78;;;23.79;34.66
69187;BME280;56301;56.864;60.554;2023-03-03T00:12:45;96456.84;;;23.82;34.47
69187;BME280;56301;56.864;60.554;2023-03-03T00:15:15;96463.94;;;23.83;33.74
69187;BME280;56301;56.864;60.554;2023-03-03T00:17:38;96459.56;;;23.82;34.22
69187;BME280;56301;56.864;60.554;2023-03-03T00:20:01;96458.53;;;23.83;34.29
69187;BME280;56301;56.864;60.554;2023-03-03T00:22:43;96469.31;;;23.83;34.29
69187;BME280;56301;56.864;60.554;2023-03-03T00:27:40;96466.03;;;23.81;33.25
69187;BME280;56301;56.864;60.554;2023-03-03T00:30:05;96479.31;;;23.82;33.17
69187;BME280;56301;56.864;60.554;2023-03-03T00:32:41;96478.25;;;23.83;33.47
69187;BME280;56301;56.864;60.554;2023-03-03T00:37:46;96491.16;;;23.81;33.82
69187;BME280;56301;56.864;60.554;2023-03-03T00:40:18;96494.66;;;23.82;33.52
69187;BME280;56301;56.864;60.554;2023-03-03T00:42:44;96500.31;;;23.80;33.30
69187;BME280;56301;56.864;60.554;2023-03-03T00:45:19;96504.91;;;23.80;33.60
69187;BME280;56301;56.864;60.554;2023-03-03T00:47:43;96507.81;;;23.78;33.53
69187;BME280;56301;56.864;60.554;2023-03-03T00:52:28;96511.81;;;23.75;34.37
69187;BME280;56301;56.864;60.554;2023-03-03T00:54:51;96519.31;;;23.73;34.64
69187;BME280;56301;56.864;60.554;2023-03-03T00:57:14;96513.91;;;23.73;34.44
69187;BME280;56301;56.864;60.554;2023-03-03T00:59:38;96522.00;;;23.73;34.12
69187;BME280;56301;56.864;60.554;2023-03-03T01:02:01;96525.53;;;23.74;33.82
69187;BME280;56301;56.864;60.554;2023-03-03T01:04:23;96523.88;;;23.73;34.22
69187;BME280;56301;56.864;60.554;2023-03-03T01:06:46;96520.72;;;23.76;33.66
69187;BME280;56301;56.864;60.554;2023-03-03T01:09:08;96525.06;;;23.77;33.96
69187;BME280;56301;56.864;60.554;2023-03-03T01:11:31;96528.00;;;23.75;34.13
69187;BME280;56301;56.864;60.554;2023-03-03T01:13:53;96538.81;;;23.75;33.74
69187;BME280;56301;56.864;60.554;2023-03-03T01:16:16;96534.69;;;23.73;34.05
69187;BME280;56301;56.864;60.554;2023-03-03T01:18:39;96543.16;;;23.76;33.83
69187;BME280;56301;56.864;60.554;2023-03-03T01:21:01;96547.13;;;23.74;34.27
69187;BME280;56301;56.864;60.554;2023-03-03T01:23:24;96550.28;;;23.71;34.75
69187;BME280;56301;56.864;60.554;2023-03-03T01:25:46;96549.63;;;23.75;34.64
69187;BME280;56301;56.864;60.554;2023-03-03T01:28:09;96553.25;;;23.81;34.09
69187;BME280;56301;56.864;60.554;2023-03-03T01:30:32;96552.13;;;24.00;33.22
69187;BME280;56301;56.864;60.554;2023-03-03T01:32:54;96558.72;;;24.16;33.45
69187;BME280;56301;56.864;60.554;2023-03-03T01:35:17;96564.94;;;24.29;33.43
69187;BME280;56301;56.864;60.554;2023-03-03T01:37:39;96557.72;;;24.41;32.35
69187;BME280;56301;56.864;60.554;2023-03-03T01:40:02;96561.94;;;24.48;32.46
69187;BME280;56301;56.864;60.554;2023-03-03T01:42:25;96563.94;;;24.53;32.38
69187;BME280;56301;56.864;60.554;2023-03-03T01:44:47;96555.13;;;24.58;32.69
69187;BME280;56301;56.864;60.554;2023-03-03T01:47:18;96561.94;;;24.60;32.34
69187;BME280;56301;56.864;60.554;2023-03-03T01:52:18;96565.56;;;24.54;31.88
69187;BME280;56301;56.864;60.554;2023-03-03T01:54:45;96549.25;;;24.49;32.46
69187;BME280;56301;56.864;60.554;2023-03-03T01:57:12;96564.31;;;24.45;32.77
69187;BME280;56301;56.864;60.554;2023-03-03T01:59:36;96563.94;;;24.41;32.19
69187;BME280;56301;56.864;60.554;2023-03-03T02:02:02;96565.19;;;24.39;32.65
69187;BME280;56301;56.864;60.554;2023-03-03T02:04:25;96575.91;;;24.34;32.96
69187;BME280;56301;56.864;60.554;2023-03-03T02:06:49;96577.44;;;24.30;32.63
69187;BME280;56301;56.864;60.554;2023-03-03T02:09:20;96562.25;;;24.29;32.58
69187;BME280;56301;56.864;60.554;2023-03-03T02:11:44;96571.31;;;24.22;32.55
69187;BME280;56301;56.864;60.554;2023-03-03T02:14:09;96570.69;;;24.09;32.18
69187;BME280;56301;56.864;60.554;2023-03-03T02:16:31;96576.09;;;23.97;33.45
69187;BME280;56301;56.864;60.554;2023-03-03T02:18:55;96577.47;;;23.88;32.99
69187;BME280;56301;56.864;60.554;2023-03-03T02:21:19;96587.31;;;23.82;33.74
69187;BME280;56301;56.864;60.554;2023-03-03T02:26:20;96593.63;;;23.76;32.69
69187;BME280;56301;56.864;60.554;2023-03-03T02:28:43;96585.38;;;23.71;33.14
69187;BME280;56301;56.864;60.554;2023-03-03T02:31:08;96586.69;;;23.68;33.84
69187;BME280;56301;56.864;60.554;2023-03-03T02:33:31;96592.09;;;23.68;32.59
69187;BME280;56301;56.864;60.554;2023-03-03T02:35:54;96595.22;;;23.65;32.72
69187;BME280;56301;56.864;60.554;2023-03-03T02:43:22;96598.81;;;23.59;34.34
69187;BME280;56301;56.864;60.554;2023-03-03T02:45:48;96595.53;;;23.57;34.59
69187;BME280;56301;56.864;60.554;2023-03-03T02:48:11;96596.34;;;23.58;33.48
69187;BME280;56301;56.864;60.554;2023-03-03T02:50:34;96596.56;;;23.56;33.67
69187;BME280;56301;56.864;60.554;2023-03-03T02:52:57;96600.34;;;23.55;34.17
69187;BME280;56301;56.864;60.554;2023-03-03T02:55:19;96604.09;;;23.54;34.25
69187;BME280;56301;56.864;60.554;2023-03-03T02:57:42;96611.13;;;23.55;33.45
69187;BME280;56301;56.864;60.554;2023-03-03T03:00:04;96616.78;;;23.53;33.19
69187;BME280;56301;56.864;60.554;2023-03-03T03:02:27;96617.22;;;23.50;33.46
69187;BME280;56301;56.864;60.554;2023-03-03T03:04:51;96620.13;;;23.49;33.46
69187;BME280;56301;56.864;60.554;2023-03-03T03:07:18;96624.25;;;23.51;33.71
69187;BME280;56301;56.864;60.554;2023-03-03T03:09:40;96624.72;;;23.48;33.72
69187;BME280;56301;56.864;60.554;2023-03-03T03:12:03;96628.38;;;23.54;33.64
69187;BME280;56301;56.864;60.554;2023-03-03T03:14:28;96636.31;;;23.67;35.11
69187;BME280;56301;56.864;60.554;2023-03-03T03:16:52;96626.84;;;23.76;34.33
69187;BME280;56301;56.864;60.554;2023-03-03T03:19:14;96629.03;;;23.86;33.35
69187;BME280;56301;56.864;60.554;2023-03-03T03:21:39;96634.91;;;23.95;33.62
69187;BME280;56301;56.864;60.554;2023-03-03T03:24:03;96637.88;;;24.05;33.62
69187;BME280;56301;56.864;60.554;2023-03-03T03:26:26;96647.97;;;24.10;33.66
69187;BME280;56301;56.864;60.554;2023-03-03T03:28:49;96642.94;;;24.13;33.96
69187;BME280;56301;56.864;60.554;2023-03-03T03:31:12;96646.25;;;24.15;33.90
69187;BME280;56301;56.864;60.554;2023-03-03T03:33:35;96645.31;;;24.21;33.94
69187;BME280;56301;56.864;60.554;2023-03-03T03:35:58;96647.53;;;24.24;34.22
69187;BME280;56301;56.864;60.554;2023-03-03T03:38:22;96664.38;;;24.26;34.09
69187;BME280;56301;56.864;60.554;2023-03-03T03:40:44;96656.84;;;24.29;34.25
69187;BME280;56301;56.864;60.554;2023-03-03T03:43:07;96663.91;;;24.30;34.36
69187;BME280;56301;56.864;60.554;2023-03-03T03:45:30;96665.75;;;24.29;34.44
69187;BME280;56301;56.864;60.554;2023-03-03T03:47:53;96666.81;;;24.28;33.76
69187;BME280;56301;56.864;60.554;2023-03-03T03:50:16;96677.63;;;24.28;33.78
69187;BME280;56301;56.864;60.554;2023-03-03T03:52:39;96678.91;;;24.25;33.26
69187;BME280;56301;56.864;60.554;2023-03-03T03:55:03;96679.94;;;24.13;33.40
69187;BME280;56301;56.864;60.554;2023-03-03T03:57:26;96681.44;;;23.97;33.45
69187;BME280;56301;56.864;60.554;2023-03-03T03:59:49;96692.47;;;24.07;33.84
69187;BME280;56301;56.864;60.554;2023-03-03T04:02:11;96688.47;;;23.98;34.06
69187;BME280;56301;56.864;60.554;2023-03-03T04:04:34;96694.88;;;23.85;33.39
69187;BME280;56301;56.864;60.554;2023-03-03T04:06:56;96684.53;;;23.82;32.25
69187;BME280;56301;56.864;60.554;2023-03-03T04:09:19;96697.19;;;23.82;32.50
69187;BME280;56301;56.864;60.554;2023-03-03T04:11:42;96708.25;;;23.80;33.03
69187;BME280;56301;56.864;60.554;2023-03-03T04:14:05;96704.72;;;23.80;32.17
69187;BME280;56301;56.864;60.554;2023-03-03T04:16:30;96706.81;;;23.77;32.34
69187;BME280;56301;56.864;60.554;2023-03-03T04:18:53;96703.53;;;23.75;32.19
69187;BME280;56301;56.864;60.554;2023-03-03T04:21:16;96713.28;;;23.76;32.61
69187;BME280;56301;56.864;60.554;2023-03-03T04:23:40;96711.63;;;23.75;33.19
69187;BME280;56301;56.864;60.554;2023-03-03T04:26:03;96714.53;;;23.74;32.18
69187;BME280;56301;56.864;60.554;2023-03-03T04:28:26;96712.91;;;23.73;32.10
69187;BME280;56301;56.864;60.554;2023-03-03T04:30:48;96714.78;;;23.72;32.03
69187;BME280;56301;56.864;60.554;2023-03-03T04:33:13;96706.69;;;23.72;31.90
69187;BME280;56301;56.864;60.554;2023-03-03T04:35:36;96714.78;;;23.72;32.03
69187;BME280;56301;56.864;60.554;2023-03-03T04:37:59;96732.84;;;23.72;31.91
69187;BME280;56301;56.864;60.554;2023-03-03T04:40:22;96730.97;;;23.72;31.84
69187;BME280;56301;56.864;60.554;2023-03-03T04:42:46;96742.59;;;23.73;31.79
69187;BME280;56301;56.864;60.554;2023-03-03T04:45:09;96740.97;;;23.72;31.58
69187;BME280;56301;56.864;60.554;2023-03-03T04:47:33;96754.47;;;23.72;31.54
69187;BME280;56301;56.864;60.554;2023-03-03T04:49:55;96765.25;;;23.72;31.52
69187;BME280;56301;56.864;60.554;2023-03-03T04:52:19;96763.38;;;23.72;32.08
69187;BME280;56301;56.864;60.554;2023-03-03T04:54:41;96763.38;;;23.72;31.38
69187;BME280;56301;56.864;60.554;2023-03-03T04:57:04;96765.25;;;23.72;31.94
69187;BME280;56301;56.864;60.554;2023-03-03T04:59:45;96771.47;;;23.72;31.64
69187;BME280;56301;56.864;60.554;2023-03-03T05:02:08;96768.78;;;23.72;31.44
69187;BME280;56301;56.864;60.554;2023-03-03T05:04:31;96771.47;;;23.72;31.39
69187;BME280;56301;56.864;60.554;2023-03-03T05:06:53;96766.09;;;23.72;31.01
69187;BME280;56301;56.864;60.554;2023-03-03T05:09:15;96783.09;;;23.73;31.23
69187;BME280;56301;56.864;60.554;2023-03-03T05:11:38;96774.75;;;23.74;31.40
69187;BME280;56301;56.864;60.554;2023-03-03T05:14:00;96780.16;;;23.74;31.25
69187;BME280;56301;56.864;60.554;2023-03-03T05:16:23;96782.03;;;23.74;31.28
69187;BME280;56301;56.864;60.554;2023-03-03T05:18:45;96786.41;;;23.75;31.11
69187;BME280;56301;56.864;60.554;2023-03-03T05:21:08;96785.56;;;23.74;31.30
69187;BME280;56301;56.864;60.554;2023-03-03T05:23:30;96788.06;;;23.76;31.42
69187;BME280;56301;56.864;60.554;2023-03-03T05:25:53;96798.03;;;23.75;31.33
69187;BME280;56301;56.864;60.554;2023-03-03T05:28:16;96799.69;;;23.76;31.21
69187;BME280;56301;56.864;60.554;2023-03-03T05:30:38;96807.53;;;23.78;31.00
69187;BME280;56301;56.864;60.554;2023-03-03T05:33:01;96805.69;;;23.78;31.20
69187;BME280;56301;56.864;60.554;2023-03-03T05:35:24;96807.53;;;23.78;31.52
69187;BME280;56301;56.864;60.554;2023-03-03T05:37:47;96817.53;;;23.77;31.47
69187;BME280;56301;56.864;60.554;2023-03-03T05:40:10;96817.53;;;23.77;31.53
69187;BME280;56301;56.864;60.554;2023-03-03T05:42:32;96828.56;;;23.76;31.14
69187;BME280;56301;56.864;60.554;2023-03-03T05:44:55;96818.13;;;23.80;30.83
69187;BME280;56301;56.864;60.554;2023-03-03T05:47:17;96807.53;;;23.78;30.83
69187;BME280;56301;56.864;60.554;2023-03-03T05:49:40;96825.19;;;23.81;30.65
69187;BME280;56301;56.864;60.554;2023-03-03T05:52:02;96825.19;;;23.81;31.02
69187;BME280;56301;56.864;60.554;2023-03-03T05:54:25;96829.53;;;23.82;30.88
69187;BME280;56301;56.864;60.554;2023-03-03T05:56:47;96841.19;;;23.82;30.46
69187;BME280;56301;56.864;60.554;2023-03-03T05:59:10;96835.53;;;23.84;30.83
69187;BME280;56301;56.864;60.554;2023-03-03T06:01:32;96835.69;;;23.89;31.19
69187;BME280;56301;56.864;60.554;2023-03-03T06:03:55;96842.75;;;23.90;30.62
69187;BME280;56301;56.864;60.554;2023-03-03T06:06:17;96847.22;;;23.96;30.65
69187;BME280;56301;56.864;60.554;2023-03-03T06:08:40;96836.53;;;24.08;30.95
69187;BME280;56301;56.864;60.554;2023-03-03T06:11:02;96835.94;;;24.54;29.66
69187;BME280;56301;56.864;60.554;2023-03-03T06:13:25;96842.78;;;25.87;27.64
69187;BME280;56301;56.864;60.554;2023-03-03T06:15:47;96838.88;;;25.95;28.52
69187;BME280;56301;56.864;60.554;2023-03-03T06:18:11;96841.94;;;25.87;28.34
69187;BME280;56301;56.864;60.554;2023-03-03T06:20:33;96837.22;;;25.70;27.69
69187;BME280;56301;56.864;60.554;2023-03-03T06:22:56;96832.50;;;25.78;28.44
69187;BME280;56301;56.864;60.554;2023-03-03T06:25:18;96838.06;;;25.36;29.52
69187;BME280;56301;56.864;60.554;2023-03-03T06:27:40;96847.91;;;24.77;30.33
69187;BME280;56301;56.864;60.554;2023-03-03T06:30:03;96846.81;;;24.66;30.03
69187;BME280;56301;56.864;60.554;2023-03-03T06:32:26;96860.56;;;24.64;30.35
69187;BME280;56301;56.864;60.554;2023-03-03T06:34:48;96853.31;;;24.77;30.29
69187;BME280;56301;56.864;60.554;2023-03-03T06:37:11;96858.06;;;24.93;30.56
69187;BME280;56301;56.864;60.554;2023-03-03T06:39:33;96867.50;;;25.02;29.66
69187;BME280;56301;56.864;60.554;2023-03-03T06:41:56;96867.63;;;25.07;29.90
69187;BME280;56301;56.864;60.554;2023-03-03T06:44:18;96867.31;;;25.15;29.77
69187;BME280;56301;56.864;60.554;2023-03-03T06:46:41;96873.19;;;25.12;29.99
69187;BME280;56301;56.864;60.554;2023-03-03T06:49:03;96877.38;;;25.08;29.72
69187;BME280;56301;56.864;60.554;2023-03-03T06:51:35;96871.03;;;25.03;30.35
69187;BME280;56301;56.864;60.554;2023-03-03T06:53:59;96879.25;;;24.96;30.42
69187;BME280;56301;56.864;60.554;2023-03-03T06:56:23;96883.13;;;25.00;30.87
69187;BME280;56301;56.864;60.554;2023-03-03T06:58:46;96885.84;;;25.00;30.37
69187;BME280;56301;56.864;60.554;2023-03-03T07:01:14;96889.25;;;24.95;30.27
69187;BME280;56301;56.864;60.554;2023-03-03T07:03:37;96887.38;;;24.96;30.29
69187;BME280;56301;56.864;60.554;2023-03-03T07:06:00;96889.63;;;24.99;30.79
69187;BME280;56301;56.864;60.554;2023-03-03T07:08:23;96894.56;;;25.02;30.60
69187;BME280;56301;56.864;60.554;2023-03-03T07:10:46;96893.06;;;25.06;30.09
69187;BME280;56301;56.864;60.554;2023-03-03T07:13:19;96896.06;;;24.98;30.29
69187;BME280;56301;56.864;60.554;2023-03-03T07:15:42;96888.91;;;25.04;29.95
69187;BME280;56301;56.864;60.554;2023-03-03T07:18:08;96879.53;;;25.06;30.25
69187;BME280;56301;56.864;60.554;2023-03-03T07:20:41;96893.81;;;25.13;30.42
69187;BME280;56301;56.864;60.554;2023-03-03T07:23:22;96888.88;;;25.22;29.71
69187;BME280;56301;56.864;60.554;2023-03-03T07:25:45;96894.38;;;25.15;30.36
69187;BME280;56301;56.864;60.554;2023-03-03T07:28:18;96889.69;;;25.23;30.11
69187;BME280;56301;56.864;60.554;2023-03-03T07:30:43;96897.09;;;25.27;29.74
69187;BME280;56301;56.864;60.554;2023-03-03T07:33:07;96892.91;;;25.31;30.18
69187;BME280;56301;56.864;60.554;2023-03-03T07:35:40;96891.03;;;25.43;29.80
69187;BME280;56301;56.864;60.554;2023-03-03T07:38:28;96898.09;;;25.56;29.44
69187;BME280;56301;56.864;60.554;2023-03-03T07:40:53;96898.13;;;25.68;29.34
69187;BME280;56301;56.864;60.554;2023-03-03T07:43:38;96907.53;;;25.77;29.04
69187;BME280;56301;56.864;60.554;2023-03-03T07:48:35;96893.53;;;25.92;28.56
69187;BME280;56301;56.864;60.554;2023-03-03T07:50:58;96888.59;;;25.89;29.05
69187;BME280;56301;56.864;60.554;2023-03-03T07:53:30;96889.44;;;25.89;29.00
69187;BME280;56301;56.864;60.554;2023-03-03T07:55:55;96894.50;;;25.86;28.75
69187;BME280;56301;56.864;60.554;2023-03-03T07:58:26;96892.84;;;25.85;28.52
69187;BME280;56301;56.864;60.554;2023-03-03T08:03:21;96894.69;;;25.73;29.02
69187;BME280;56301;56.864;60.554;2023-03-03T08:05:43;96889.28;;;25.73;29.24
69187;BME280;56301;56.864;60.554;2023-03-03T08:10:35;96901.88;;;25.67;29.56
69187;BME280;56301;56.864;60.554;2023-03-03T08:12:59;96901.28;;;25.77;29.57
69187;BME280;56301;56.864;60.554;2023-03-03T08:15:32;96906.97;;;25.87;29.27
69187;BME280;56301;56.864;60.554;2023-03-03T08:17:57;96903.09;;;25.83;29.18
69187;BME280;56301;56.864;60.554;2023-03-03T08:20:41;96904.84;;;25.89;29.76
69187;BME280;56301;56.864;60.554;2023-03-03T08:23:04;96911.31;;;26.00;28.70
69187;BME280;56301;56.864;60.554;2023-03-03T08:25:26;96906.94;;;26.10;29.19
69187;BME280;56301;56.864;60.554;2023-03-03T08:27:49;96905.19;;;26.16;28.23
69187;BME280;56301;56.864;60.554;2023-03-03T08:30:11;96901.28;;;26.24;27.80
69187;BME280;56301;56.864;60.554;2023-03-03T08:32:34;96912.94;;;26.24;28.20
69187;BME280;56301;56.864;60.554;2023-03-03T08:34:56;96915.44;;;26.26;28.54
69187;BME280;56301;56.864;60.554;2023-03-03T08:37:19;96913.53;;;26.26;28.53
69187;BME280;56301;56.864;60.554;2023-03-03T08:39:41;96911.66;;;26.27;28.43
69187;BME280;56301;56.864;60.554;2023-03-03T08:42:04;96910.00;;;26.26;28.50
69187;BME280;56301;56.864;60.554;2023-03-03T08:44:26;96907.31;;;26.26;28.81
69187;BME280;56301;56.864;60.554;2023-03-03T08:46:49;96914.13;;;26.28;28.59
69187;BME280;56301;56.864;60.554;2023-03-03T08:49:11;96913.66;;;26.31;28.77
69187;BME280;56301;56.864;60.554;2023-03-03T08:51:34;96912.81;;;26.31;28.17
69187;BME280;56301;56.864;60.554;2023-03-03T08:53:56;96910.09;;;26.31;28.13
69187;BME280;56301;56.864;60.554;2023-03-03T08:56:19;96905.06;;;26.23;29.22
69187;BME280;56301;56.864;60.554;2023-03-03T08:58:43;96916.59;;;26.30;28.61
69187;BME280;56301;56.864;60.554;2023-03-03T09:01:06;96913.41;;;26.33;29.14
69187;BME280;56301;56.864;60.554;2023-03-03T09:03:28;96908.00;;;26.33;27.97
69187;BME280;56301;56.864;60.554;2023-03-03T09:05:51;96918.25;;;26.31;28.85
69187;BME280;56301;56.864;60.554;2023-03-03T09:08:13;96912.81;;;26.31;28.09
69187;BME280;56301;56.864;60.554;2023-03-03T09:10:36;96925.78;;;26.29;28.72
69187;BME280;56301;56.864;60.554;2023-03-03T09:12:59;96916.59;;;26.30;28.80
69187;BME280;56301;56.864;60.554;2023-03-03T09:15:29;96919.66;;;26.33;28.07
69187;BME280;56301;56.864;60.554;2023-03-03T09:17:53;96927.31;;;26.36;28.51
69187;BME280;56301;56.864;60.554;2023-03-03T09:20:20;96913.50;;;26.38;28.11
69187;BME280;56301;56.864;60.554;2023-03-03T09:22:43;96926.81;;;26.39;28.03
69187;BME280;56301;56.864;60.554;2023-03-03T09:25:13;96919.53;;;26.40;28.83
69187;BME280;56301;56.864;60.554;2023-03-03T09:27:39;96927.53;;;26.35;28.18
69187;BME280;56301;56.864;60.554;2023-03-03T09:30:23;96925.78;;;26.29;28.28
69187;BME280;56301;56.864;60.554;2023-03-03T09:32:48;96926.75;;;26.23;29.27
69187;BME280;56301;56.864;60.554;2023-03-03T09:37:52;96929.22;;;26.24;29.18
69187;BME280;56301;56.864;60.554;2023-03-03T09:41:15;96926.16;;;26.21;28.78
69187;BME280;56301;56.864;60.554;2023-03-03T09:50:50;96926.63;;;26.17;29.78
69187;BME280;56301;56.864;60.554;2023-03-03T09:55:52;96934.06;;;26.22;29.16
69187;BME280;56301;56.864;60.554;2023-03-03T09:58:36;96934.63;;;26.24;29.21
69187;BME280;56301;56.864;60.554;2023-03-03T10:03:34;96931.69;;;26.26;29.18
69187;BME280;56301;56.864;60.554;2023-03-03T10:08:38;96935.09;;;26.21;29.51
69187;BME280;56301;56.864;60.554;2023-03-03T10:13:41;96949.84;;;26.13;29.29
69187;BME280;56301;56.864;60.554;2023-03-03T10:16:36;96947.13;;;26.13;29.30
69187;BME280;56301;56.864;60.554;2023-03-03T10:19:20;96940.69;;;26.14;29.77
69187;BME280;56301;56.864;60.554;2023-03-03T10:21:50;96953.53;;;26.07;29.27
69187;BME280;56301;56.864;60.554;2023-03-03T10:24:37;96966.00;;;26.08;29.25
69187;BME280;56301;56.864;60.554;2023-03-03T10:32:00;96959.28;;;26.11;29.97
69187;BME280;56301;56.864;60.554;2023-03-03T10:37:03;96957.53;;;26.05;29.78
69187;BME280;56301;56.864;60.554;2023-03-03T10:49:21;96965.47;;;25.64;29.92
69187;BME280;56301;56.864;60.554;2023-03-03T10:51:52;96969.22;;;25.52;30.19
69187;BME280;56301;56.864;60.554;2023-03-03T11:06:51;96987.47;;;25.14;30.07
69187;BME280;56301;56.864;60.554;2023-03-03T11:09:22;96978.34;;;25.09;30.86
69187;BME280;56301;56.864;60.554;2023-03-03T11:14:50;96994.91;;;25.01;30.01
69187;BME280;56301;56.864;60.554;2023-03-03T11:17:28;96989.13;;;24.97;30.19
69187;BME280;56301;56.864;60.554;2023-03-03T11:30:17;96991.84;;;24.79;30.19
69187;BME280;56301;56.864;60.554;2023-03-03T11:32:48;96989.00;;;24.73;30.29
69187;BME280;56301;56.864;60.554;2023-03-03T11:35:19;96993.97;;;24.77;30.52
69187;BME280;56301;56.864;60.554;2023-03-03T11:37:50;96997.56;;;24.70;30.43
69187;BME280;56301;56.864;60.554;2023-03-03T11:40:25;97004.50;;;24.66;30.32
69187;BME280;56301;56.864;60.554;2023-03-03T11:45:36;96999.97;;;24.60;30.14
69187;BME280;56301;56.864;60.554;2023-03-03T11:50:44;97007.09;;;24.55;30.14
69187;BME280;56301;56.864;60.554;2023-03-03T11:53:24;97005.88;;;24.50;30.63
69187;BME280;56301;56.864;60.554;2023-03-03T11:55:51;97012.34;;;24.49;30.58
69187;BME280;56301;56.864;60.554;2023-03-03T12:03:15;97027.63;;;24.44;30.33
69187;BME280;56301;56.864;60.554;2023-03-03T12:10:37;97030.56;;;24.36;30.20
69187;BME280;56301;56.864;60.554;2023-03-03T12:13:16;97038.06;;;24.34;30.04
69187;BME280;56301;56.864;60.554;2023-03-03T12:15:51;97023.13;;;24.31;30.44
69187;BME280;56301;56.864;60.554;2023-03-03T12:25:34;97047.94;;;24.21;29.98
69187;BME280;56301;56.864;60.554;2023-03-03T12:37:36;97056.56;;;24.12;30.63
69187;BME280;56301;56.864;60.554;2023-03-03T12:40:03;97053.50;;;24.08;30.21
69187;BME280;56301;56.864;60.554;2023-03-03T12:47:49;97055.56;;;24.06;30.08
69187;BME280;56301;56.864;60.554;2023-03-03T12:52:42;97057.88;;;24.02;30.08
69187;BME280;56301;56.864;60.554;2023-03-03T13:08:25;97067.31;;;23.93;30.06
69187;BME280;56301;56.864;60.554;2023-03-03T13:10:55;97068.34;;;23.92;29.80
69187;BME280;56301;56.864;60.554;2023-03-03T13:13:24;97075.88;;;23.90;29.98
69187;BME280;56301;56.864;60.554;2023-03-03T13:16:02;97067.97;;;23.89;30.06
69187;BME280;56301;56.864;60.554;2023-03-03T13:18:28;97070.06;;;23.87;30.16
69187;BME280;56301;56.864;60.554;2023-03-03T13:25:49;97073.44;;;23.82;29.75
69187;BME280;56301;56.864;60.554;2023-03-03T13:28:23;97072.81;;;23.80;30.02
69187;BME280;56301;56.864;60.554;2023-03-03T13:30:47;97074.69;;;23.80;29.90
69187;BME280;56301;56.864;60.554;2023-03-03T13:33:14;97071.38;;;23.77;30.06
69187;BME280;56301;56.864;60.554;2023-03-03T13:36:12;97076.78;;;23.77;29.95
69187;BME280;56301;56.864;60.554;2023-03-03T13:38:31;97080.53;;;23.76;30.06
69187;BME280;56301;56.864;60.554;2023-03-03T13:43:24;97088.63;;;23.76;29.96
69187;BME280;56301;56.864;60.554;2023-03-03T13:48:27;97083.66;;;23.73;29.91
69187;BME280;56301;56.864;60.554;2023-03-03T13:51:03;97093.63;;;23.73;29.72
69187;BME280;56301;56.864;60.554;2023-03-03T13:53:42;97096.56;;;23.71;30.23
69187;BME280;56301;56.864;60.554;2023-03-03T14:04:28;97103.41;;;23.67;30.01
69187;BME280;56301;56.864;60.554;2023-03-03T14:06:54;97109.00;;;23.66;29.94
69187;BME280;56301;56.864;60.554;2023-03-03T14:09:29;97113.59;;;23.65;29.65
69187;BME280;56301;56.864;60.554;2023-03-03T14:14:49;97112.97;;;23.63;29.46
69187;BME280;56301;56.864;60.554;2023-03-03T14:17:39;97112.16;;;23.63;29.76
69187;BME280;56301;56.864;60.554;2023-03-03T14:20:02;97114.03;;;23.62;29.39
69187;BME280;56301;56.864;60.554;2023-03-03T14:25:09;97115.06;;;23.61;29.59
69187;BME280;56301;56.864;60.554;2023-03-03T14:27:36;97114.25;;;23.61;29.64
69187;BME280;56301;56.864;60.554;2023-03-03T14:29:59;97117.97;;;23.60;29.90
69187;BME280;56301;56.864;60.554;2023-03-03T14:32:41;97116.09;;;23.60;29.34
69187;BME280;56301;56.864;60.554;2023-03-03T14:35:10;97121.50;;;23.60;29.35
69187;BME280;56301;56.864;60.554;2023-03-03T14:37:41;97118.41;;;23.57;29.92
69187;BME280;56301;56.864;60.554;2023-03-03T14:40:29;97122.81;;;23.51;30.03
69187;BME280;56301;56.864;60.554;2023-03-03T14:45:18;97128.50;;;23.74;29.56
69187;BME280;56301;56.864;60.554;2023-03-03T14:47:43;97127.50;;;23.75;29.91
69187;BME280;56301;56.864;60.554;2023-03-03T14:50:27;97125.38;;;23.77;28.92
69187;BME280;56301;56.864;60.554;2023-03-03T14:52:59;97118.97;;;23.78;29.49
69187;BME280;56301;56.864;60.554;2023-03-03T14:55:29;97126.00;;;23.80;30.60
69187;BME280;56301;56.864;60.554;2023-03-03T14:57:53;97120.59;;;23.80;29.34
69187;BME280;56301;56.864;60.554;2023-03-03T15:00:34;97124.13;;;23.80;29.04
69187;BME280;56301;56.864;60.554;2023-03-03T15:05:37;97133.06;;;23.81;28.95
69187;BME280;56301;56.864;60.554;2023-03-03T15:08:12;97136.97;;;23.85;30.74
69187;BME280;56301;56.864;60.554;2023-03-03T15:10:43;97134.84;;;23.93;30.26
69187;BME280;56301;56.864;60.554;2023-03-03T15:13:47;97139.88;;;23.90;28.99
69187;BME280;56301;56.864;60.554;2023-03-03T15:15:56;97132.63;;;23.84;29.28
69187;BME280;56301;56.864;60.554;2023-03-03T15:18:21;97139.28;;;23.81;29.03
69187;BME280;56301;56.864;60.554;2023-03-03T15:20:45;97137.00;;;23.78;30.19
69187;BME280;56301;56.864;60.554;2023-03-03T15:25:46;97138.03;;;23.84;29.93
69187;BME280;56301;56.864;60.554;2023-03-03T15:28:21;97141.09;;;23.94;30.79
69187;BME280;56301;56.864;60.554;2023-03-03T15:30:54;97141.44;;;24.04;30.68
69187;BME280;56301;56.864;60.554;2023-03-03T15:38:17;97139.59;;;24.30;29.50
69187;BME280;56301;56.864;60.554;2023-03-03T15:40:45;97148.91;;;24.34;30.40
69187;BME280;56301;56.864;60.554;2023-03-03T15:58:35;97157.94;;;24.21;30.41